sensor_id;sensor_type;location;lat;lon;timestamp;P1;durP1;ratioP1;P2;durP2;ratioP2
45136;SDS011;30894;51.740;19.498;2023-11-21T00:00:34;57.20;;;15.75;;
45136;SDS011;30894;51.740;19.498;2023-11-21T00:03:30;57.17;;;15.57;;
45136;SDS011;30894;51.740;19.498;2023-11-21T00:05:56;60.47;;;16.00;;
45136;SDS011;30894;51.740;19.498;2023-11-21T00:08:23;58.53;;;16.38;;
45136;SDS011;30894;51.740;19.498;2023-11-21T00:10:49;69.82;;;16.17;;
45136;SDS011;30894;51.740;19.498;2023-11-21T00:13:16;64.55;;;16.17;;
45136;SDS011;30894;51.740;19.498;2023-11-21T00:15:43;62.85;;;16.58;;
45136;SDS011;30894;51.740;19.498;2023-11-21T00:18:09;60.90;;;15.82;;
45136;SDS011;30894;51.740;19.498;2023-11-21T00:20:35;51.03;;;14.45;;
45136;SDS011;30894;51.740;19.498;2023-11-21T00:23:05;51.97;;;14.55;;
45136;SDS011;30894;51.740;19.498;2023-11-21T00:25:32;56.92;;;15.98;;
45136;SDS011;30894;51.740;19.498;2023-11-21T00:28:01;52.33;;;15.68;;
45136;SDS011;30894;51.740;19.498;2023-11-21T00:30:31;60.75;;;15.23;;
45136;SDS011;30894;51.740;19.498;2023-11-21T00:32:58;67.75;;;13.88;;
45136;SDS011;30894;51.740;19.498;2023-11-21T00:35:24;51.03;;;14.23;;
45136;SDS011;30894;51.740;19.498;2023-11-21T00:37:51;54.15;;;15.38;;
45136;SDS011;30894;51.740;19.498;2023-11-21T00:40:17;42.55;;;11.70;;
45136;SDS011;30894;51.740;19.498;2023-11-21T00:42:48;44.45;;;13.07;;
45136;SDS011;30894;51.740;19.498;2023-11-21T00:45:14;53.25;;;12.75;;
45136;SDS011;30894;51.740;19.498;2023-11-21T00:47:40;46.05;;;13.88;;
45136;SDS011;30894;51.740;19.498;2023-11-21T00:50:10;53.30;;;13.35;;
45136;SDS011;30894;51.740;19.498;2023-11-21T00:52:37;47.63;;;12.23;;
45136;SDS011;30894;51.740;19.498;2023-11-21T00:55:04;48.35;;;11.70;;
45136;SDS011;30894;51.740;19.498;2023-11-21T00:57:33;32.90;;;10.25;;
45136;SDS011;30894;51.740;19.498;2023-11-21T01:00:01;36.33;;;11.63;;
45136;SDS011;30894;51.740;19.498;2023-11-21T01:02:33;40.85;;;10.05;;
45136;SDS011;30894;51.740;19.498;2023-11-21T01:05:02;41.97;;;10.02;;
45136;SDS011;30894;51.740;19.498;2023-11-21T01:07:29;30.17;;;9.77;;
45136;SDS011;30894;51.740;19.498;2023-11-21T01:09:56;41.08;;;10.65;;
45136;SDS011;30894;51.740;19.498;2023-11-21T01:12:22;35.58;;;10.20;;
45136;SDS011;30894;51.740;19.498;2023-11-21T01:14:50;31.30;;;9.90;;
45136;SDS011;30894;51.740;19.498;2023-11-21T01:17:17;44.08;;;9.27;;
45136;SDS011;30894;51.740;19.498;2023-11-21T01:19:50;37.10;;;10.05;;
45136;SDS011;30894;51.740;19.498;2023-11-21T01:22:16;36.65;;;9.20;;
45136;SDS011;30894;51.740;19.498;2023-11-21T01:24:45;43.72;;;10.35;;
45136;SDS011;30894;51.740;19.498;2023-11-21T01:27:14;34.03;;;9.20;;
45136;SDS011;30894;51.740;19.498;2023-11-21T01:29:40;28.58;;;9.18;;
45136;SDS011;30894;51.740;19.498;2023-11-21T01:32:07;31.10;;;9.65;;
45136;SDS011;30894;51.740;19.498;2023-11-21T01:34:33;45.67;;;11.27;;
45136;SDS011;30894;51.740;19.498;2023-11-21T01:37:03;31.65;;;9.30;;
45136;SDS011;30894;51.740;19.498;2023-11-21T01:39:30;32.30;;;8.63;;
45136;SDS011;30894;51.740;19.498;2023-11-21T01:41:57;35.70;;;9.40;;
45136;SDS011;30894;51.740;19.498;2023-11-21T01:44:33;26.83;;;8.48;;
45136;SDS011;30894;51.740;19.498;2023-11-21T01:46:59;31.00;;;8.88;;
45136;SDS011;30894;51.740;19.498;2023-11-21T01:49:33;29.52;;;8.45;;
45136;SDS011;30894;51.740;19.498;2023-11-21T01:52:01;33.25;;;9.13;;
45136;SDS011;30894;51.740;19.498;2023-11-21T01:54:29;27.90;;;8.25;;
45136;SDS011;30894;51.740;19.498;2023-11-21T01:57:00;26.85;;;8.80;;
45136;SDS011;30894;51.740;19.498;2023-11-21T01:59:36;21.98;;;8.07;;
45136;SDS011;30894;51.740;19.498;2023-11-21T02:02:08;29.30;;;8.88;;
45136;SDS011;30894;51.740;19.498;2023-11-21T02:04:35;30.63;;;8.07;;
45136;SDS011;30894;51.740;19.498;2023-11-21T02:07:02;30.83;;;8.55;;
45136;SDS011;30894;51.740;19.498;2023-11-21T02:09:32;36.28;;;7.97;;
45136;SDS011;30894;51.740;19.498;2023-11-21T02:12:04;23.83;;;8.50;;
45136;SDS011;30894;51.740;19.498;2023-11-21T02:14:30;24.50;;;8.15;;
45136;SDS011;30894;51.740;19.498;2023-11-21T02:16:58;21.05;;;7.72;;
45136;SDS011;30894;51.740;19.498;2023-11-21T02:19:24;23.25;;;7.57;;
45136;SDS011;30894;51.740;19.498;2023-11-21T02:22:05;22.65;;;7.20;;
45136;SDS011;30894;51.740;19.498;2023-11-21T02:24:32;31.08;;;8.68;;
45136;SDS011;30894;51.740;19.498;2023-11-21T02:27:02;25.90;;;7.88;;
45136;SDS011;30894;51.740;19.498;2023-11-21T02:29:28;31.85;;;8.98;;
45136;SDS011;30894;51.740;19.498;2023-11-21T02:31:55;31.60;;;8.50;;
45136;SDS011;30894;51.740;19.498;2023-11-21T02:34:22;37.67;;;9.30;;
45136;SDS011;30894;51.740;19.498;2023-11-21T02:36:50;27.38;;;8.07;;
45136;SDS011;30894;51.740;19.498;2023-11-21T02:39:17;31.65;;;9.25;;
45136;SDS011;30894;51.740;19.498;2023-11-21T02:41:44;41.65;;;9.80;;
45136;SDS011;30894;51.740;19.498;2023-11-21T02:44:10;35.10;;;8.73;;
45136;SDS011;30894;51.740;19.498;2023-11-21T02:46:37;27.52;;;8.27;;
45136;SDS011;30894;51.740;19.498;2023-11-21T02:49:05;32.13;;;9.55;;
45136;SDS011;30894;51.740;19.498;2023-11-21T02:51:32;27.45;;;8.80;;
45136;SDS011;30894;51.740;19.498;2023-11-21T02:54:01;27.33;;;9.73;;
45136;SDS011;30894;51.740;19.498;2023-11-21T02:56:32;27.85;;;8.60;;
45136;SDS011;30894;51.740;19.498;2023-11-21T02:58:59;39.35;;;9.50;;
45136;SDS011;30894;51.740;19.498;2023-11-21T03:01:29;31.02;;;8.88;;
45136;SDS011;30894;51.740;19.498;2023-11-21T03:03:55;29.02;;;8.40;;
45136;SDS011;30894;51.740;19.498;2023-11-21T03:06:22;28.17;;;7.63;;
45136;SDS011;30894;51.740;19.498;2023-11-21T03:08:51;30.58;;;8.80;;
45136;SDS011;30894;51.740;19.498;2023-11-21T03:11:18;28.80;;;8.77;;
45136;SDS011;30894;51.740;19.498;2023-11-21T03:13:47;20.20;;;7.93;;
45136;SDS011;30894;51.740;19.498;2023-11-21T03:16:15;31.65;;;8.50;;
45136;SDS011;30894;51.740;19.498;2023-11-21T03:18:41;33.28;;;8.73;;
45136;SDS011;30894;51.740;19.498;2023-11-21T03:21:08;36.78;;;9.07;;
45136;SDS011;30894;51.740;19.498;2023-11-21T03:23:35;29.85;;;9.88;;
45136;SDS011;30894;51.740;19.498;2023-11-21T03:26:02;40.45;;;10.10;;
45136;SDS011;30894;51.740;19.498;2023-11-21T03:28:29;31.30;;;10.25;;
45136;SDS011;30894;51.740;19.498;2023-11-21T03:30:56;29.13;;;9.60;;
45136;SDS011;30894;51.740;19.498;2023-11-21T03:33:22;28.40;;;8.07;;
45136;SDS011;30894;51.740;19.498;2023-11-21T03:35:49;31.25;;;8.70;;
45136;SDS011;30894;51.740;19.498;2023-11-21T03:38:15;30.15;;;9.27;;
45136;SDS011;30894;51.740;19.498;2023-11-21T03:40:42;27.92;;;8.50;;
45136;SDS011;30894;51.740;19.498;2023-11-21T03:43:09;34.47;;;9.85;;
45136;SDS011;30894;51.740;19.498;2023-11-21T03:45:35;33.03;;;9.30;;
45136;SDS011;30894;51.740;19.498;2023-11-21T03:48:02;27.70;;;6.90;;
45136;SDS011;30894;51.740;19.498;2023-11-21T03:50:29;30.90;;;8.55;;
45136;SDS011;30894;51.740;19.498;2023-11-21T03:52:55;26.45;;;8.50;;
45136;SDS011;30894;51.740;19.498;2023-11-21T03:55:24;33.55;;;8.48;;
45136;SDS011;30894;51.740;19.498;2023-11-21T03:57:53;33.80;;;9.82;;
45136;SDS011;30894;51.740;19.498;2023-11-21T04:00:27;23.58;;;8.27;;
45136;SDS011;30894;51.740;19.498;2023-11-21T04:02:53;28.27;;;8.35;;
45136;SDS011;30894;51.740;19.498;2023-11-21T04:05:20;34.30;;;9.70;;
45136;SDS011;30894;51.740;19.498;2023-11-21T04:07:48;32.95;;;9.45;;
45136;SDS011;30894;51.740;19.498;2023-11-21T04:10:19;32.25;;;9.43;;
45136;SDS011;30894;51.740;19.498;2023-11-21T04:12:45;22.27;;;8.73;;
45136;SDS011;30894;51.740;19.498;2023-11-21T04:15:14;25.13;;;8.05;;
45136;SDS011;30894;51.740;19.498;2023-11-21T04:17:40;33.10;;;8.45;;
45136;SDS011;30894;51.740;19.498;2023-11-21T04:20:07;23.77;;;8.40;;
45136;SDS011;30894;51.740;19.498;2023-11-21T04:22:41;26.77;;;9.15;;
45136;SDS011;30894;51.740;19.498;2023-11-21T04:25:10;28.70;;;8.45;;
45136;SDS011;30894;51.740;19.498;2023-11-21T04:27:43;37.42;;;8.52;;
45136;SDS011;30894;51.740;19.498;2023-11-21T04:30:17;24.58;;;9.25;;
45136;SDS011;30894;51.740;19.498;2023-11-21T04:32:46;27.20;;;9.55;;
45136;SDS011;30894;51.740;19.498;2023-11-21T04:35:16;31.50;;;9.68;;
45136;SDS011;30894;51.740;19.498;2023-11-21T04:37:45;26.08;;;8.88;;
45136;SDS011;30894;51.740;19.498;2023-11-21T04:40:12;34.95;;;9.98;;
45136;SDS011;30894;51.740;19.498;2023-11-21T04:42:38;35.20;;;9.18;;
45136;SDS011;30894;51.740;19.498;2023-11-21T04:45:05;36.58;;;8.95;;
45136;SDS011;30894;51.740;19.498;2023-11-21T04:47:37;29.30;;;9.65;;
45136;SDS011;30894;51.740;19.498;2023-11-21T04:50:04;24.15;;;7.97;;
45136;SDS011;30894;51.740;19.498;2023-11-21T04:52:31;23.60;;;8.82;;
45136;SDS011;30894;51.740;19.498;2023-11-21T04:55:01;23.13;;;7.63;;
45136;SDS011;30894;51.740;19.498;2023-11-21T04:57:28;24.33;;;8.48;;
45136;SDS011;30894;51.740;19.498;2023-11-21T04:59:56;27.10;;;8.88;;
45136;SDS011;30894;51.740;19.498;2023-11-21T05:02:24;32.53;;;8.50;;
45136;SDS011;30894;51.740;19.498;2023-11-21T05:04:51;30.63;;;8.57;;
45136;SDS011;30894;51.740;19.498;2023-11-21T05:07:18;26.95;;;8.77;;
45136;SDS011;30894;51.740;19.498;2023-11-21T05:09:54;24.75;;;8.43;;
45136;SDS011;30894;51.740;19.498;2023-11-21T05:12:24;31.58;;;8.80;;
45136;SDS011;30894;51.740;19.498;2023-11-21T05:14:51;28.70;;;9.13;;
45136;SDS011;30894;51.740;19.498;2023-11-21T05:17:17;30.20;;;8.93;;
45136;SDS011;30894;51.740;19.498;2023-11-21T05:19:44;28.58;;;9.65;;
45136;SDS011;30894;51.740;19.498;2023-11-21T05:22:11;25.15;;;9.07;;
45136;SDS011;30894;51.740;19.498;2023-11-21T05:24:38;29.27;;;9.32;;
45136;SDS011;30894;51.740;19.498;2023-11-21T05:27:09;31.88;;;10.20;;
45136;SDS011;30894;51.740;19.498;2023-11-21T05:29:39;33.15;;;10.50;;
45136;SDS011;30894;51.740;19.498;2023-11-21T05:32:05;28.35;;;9.23;;
45136;SDS011;30894;51.740;19.498;2023-11-21T05:34:31;24.45;;;9.38;;
45136;SDS011;30894;51.740;19.498;2023-11-21T05:36:57;29.38;;;9.85;;
45136;SDS011;30894;51.740;19.498;2023-11-21T05:39:27;30.77;;;9.98;;
45136;SDS011;30894;51.740;19.498;2023-11-21T05:41:53;24.75;;;8.85;;
45136;SDS011;30894;51.740;19.498;2023-11-21T05:44:20;37.67;;;11.02;;
45136;SDS011;30894;51.740;19.498;2023-11-21T05:46:46;32.38;;;10.38;;
45136;SDS011;30894;51.740;19.498;2023-11-21T05:49:13;32.95;;;10.27;;
45136;SDS011;30894;51.740;19.498;2023-11-21T05:51:41;27.15;;;9.13;;
45136;SDS011;30894;51.740;19.498;2023-11-21T05:54:07;27.92;;;10.18;;
45136;SDS011;30894;51.740;19.498;2023-11-21T05:56:34;32.80;;;10.82;;
45136;SDS011;30894;51.740;19.498;2023-11-21T05:59:00;26.85;;;10.10;;
45136;SDS011;30894;51.740;19.498;2023-11-21T06:01:27;31.00;;;10.13;;
45136;SDS011;30894;51.740;19.498;2023-11-21T06:03:54;24.02;;;9.25;;
45136;SDS011;30894;51.740;19.498;2023-11-21T06:06:31;33.72;;;10.77;;
45136;SDS011;30894;51.740;19.498;2023-11-21T06:09:08;35.35;;;10.60;;
45136;SDS011;30894;51.740;19.498;2023-11-21T06:11:35;29.83;;;9.48;;
45136;SDS011;30894;51.740;19.498;2023-11-21T06:14:03;30.67;;;9.30;;
45136;SDS011;30894;51.740;19.498;2023-11-21T06:16:29;19.80;;;7.20;;
45136;SDS011;30894;51.740;19.498;2023-11-21T06:18:55;26.48;;;8.82;;
45136;SDS011;30894;51.740;19.498;2023-11-21T06:21:21;26.00;;;9.20;;
45136;SDS011;30894;51.740;19.498;2023-11-21T06:23:48;25.15;;;9.20;;
45136;SDS011;30894;51.740;19.498;2023-11-21T06:26:17;23.55;;;8.52;;
45136;SDS011;30894;51.740;19.498;2023-11-21T06:28:44;30.42;;;8.35;;
45136;SDS011;30894;51.740;19.498;2023-11-21T06:31:10;24.77;;;7.82;;
45136;SDS011;30894;51.740;19.498;2023-11-21T06:33:38;17.85;;;5.85;;
45136;SDS011;30894;51.740;19.498;2023-11-21T06:36:04;30.67;;;8.30;;
45136;SDS011;30894;51.740;19.498;2023-11-21T06:38:31;24.55;;;7.97;;
45136;SDS011;30894;51.740;19.498;2023-11-21T06:40:57;30.42;;;10.50;;
45136;SDS011;30894;51.740;19.498;2023-11-21T06:43:24;23.20;;;6.70;;
45136;SDS011;30894;51.740;19.498;2023-11-21T06:45:50;20.88;;;6.10;;
45136;SDS011;30894;51.740;19.498;2023-11-21T06:48:20;28.23;;;8.07;;
45136;SDS011;30894;51.740;19.498;2023-11-21T06:50:46;20.13;;;7.28;;
45136;SDS011;30894;51.740;19.498;2023-11-21T06:53:13;20.92;;;7.30;;
45136;SDS011;30894;51.740;19.498;2023-11-21T06:55:40;24.60;;;7.40;;
45136;SDS011;30894;51.740;19.498;2023-11-21T06:58:07;24.48;;;7.60;;
45136;SDS011;30894;51.740;19.498;2023-11-21T07:00:33;21.42;;;7.72;;
45136;SDS011;30894;51.740;19.498;2023-11-21T07:02:59;24.02;;;8.35;;
45136;SDS011;30894;51.740;19.498;2023-11-21T07:05:25;18.90;;;6.65;;
45136;SDS011;30894;51.740;19.498;2023-11-21T07:07:54;27.17;;;8.75;;
45136;SDS011;30894;51.740;19.498;2023-11-21T07:10:22;20.65;;;7.85;;
45136;SDS011;30894;51.740;19.498;2023-11-21T07:12:49;25.45;;;8.98;;
45136;SDS011;30894;51.740;19.498;2023-11-21T07:15:16;22.35;;;7.85;;
45136;SDS011;30894;51.740;19.498;2023-11-21T07:17:45;27.20;;;9.55;;
45136;SDS011;30894;51.740;19.498;2023-11-21T07:20:14;23.25;;;9.20;;
45136;SDS011;30894;51.740;19.498;2023-11-21T07:22:44;23.90;;;9.00;;
45136;SDS011;30894;51.740;19.498;2023-11-21T07:25:11;19.65;;;6.13;;
45136;SDS011;30894;51.740;19.498;2023-11-21T07:27:40;22.67;;;6.95;;
45136;SDS011;30894;51.740;19.498;2023-11-21T07:30:07;21.33;;;7.47;;
45136;SDS011;30894;51.740;19.498;2023-11-21T07:32:35;19.70;;;8.27;;
45136;SDS011;30894;51.740;19.498;2023-11-21T07:35:02;19.52;;;7.78;;
45136;SDS011;30894;51.740;19.498;2023-11-21T07:37:29;28.02;;;9.38;;
45136;SDS011;30894;51.740;19.498;2023-11-21T07:39:55;15.85;;;4.72;;
45136;SDS011;30894;51.740;19.498;2023-11-21T07:42:24;20.83;;;8.15;;
45136;SDS011;30894;51.740;19.498;2023-11-21T07:44:53;26.52;;;8.65;;
45136;SDS011;30894;51.740;19.498;2023-11-21T07:47:19;23.15;;;9.00;;
45136;SDS011;30894;51.740;19.498;2023-11-21T07:49:45;22.23;;;7.70;;
45136;SDS011;30894;51.740;19.498;2023-11-21T07:52:13;25.48;;;9.00;;
45136;SDS011;30894;51.740;19.498;2023-11-21T07:54:41;23.45;;;6.25;;
45136;SDS011;30894;51.740;19.498;2023-11-21T07:57:08;20.35;;;8.05;;
45136;SDS011;30894;51.740;19.498;2023-11-21T07:59:38;21.23;;;7.35;;
45136;SDS011;30894;51.740;19.498;2023-11-21T08:02:08;28.33;;;9.73;;
45136;SDS011;30894;51.740;19.498;2023-11-21T08:04:40;20.45;;;7.63;;
45136;SDS011;30894;51.740;19.498;2023-11-21T08:07:06;23.67;;;7.45;;
45136;SDS011;30894;51.740;19.498;2023-11-21T08:09:36;16.05;;;6.97;;
45136;SDS011;30894;51.740;19.498;2023-11-21T08:12:02;12.05;;;6.25;;
45136;SDS011;30894;51.740;19.498;2023-11-21T08:14:30;10.32;;;4.47;;
45136;SDS011;30894;51.740;19.498;2023-11-21T08:16:56;12.23;;;5.68;;
45136;SDS011;30894;51.740;19.498;2023-11-21T08:19:23;11.68;;;5.03;;
45136;SDS011;30894;51.740;19.498;2023-11-21T08:21:53;9.00;;;3.78;;
45136;SDS011;30894;51.740;19.498;2023-11-21T08:24:20;11.70;;;4.80;;
45136;SDS011;30894;51.740;19.498;2023-11-21T08:26:50;9.70;;;4.65;;
45136;SDS011;30894;51.740;19.498;2023-11-21T08:29:19;9.32;;;5.15;;
45136;SDS011;30894;51.740;19.498;2023-11-21T08:31:46;7.38;;;2.83;;
45136;SDS011;30894;51.740;19.498;2023-11-21T08:34:14;8.88;;;3.60;;
45136;SDS011;30894;51.740;19.498;2023-11-21T08:36:41;9.27;;;4.32;;
45136;SDS011;30894;51.740;19.498;2023-11-21T08:39:08;11.85;;;4.75;;
45136;SDS011;30894;51.740;19.498;2023-11-21T08:41:42;9.10;;;4.35;;
45136;SDS011;30894;51.740;19.498;2023-11-21T08:44:08;10.13;;;4.85;;
45136;SDS011;30894;51.740;19.498;2023-11-21T08:46:36;12.55;;;4.53;;
45136;SDS011;30894;51.740;19.498;2023-11-21T08:49:04;9.52;;;4.95;;
45136;SDS011;30894;51.740;19.498;2023-11-21T08:51:34;13.55;;;5.20;;
45136;SDS011;30894;51.740;19.498;2023-11-21T08:54:03;19.13;;;6.53;;
45136;SDS011;30894;51.740;19.498;2023-11-21T08:56:34;10.88;;;4.35;;
45136;SDS011;30894;51.740;19.498;2023-11-21T08:59:02;10.13;;;4.80;;
45136;SDS011;30894;51.740;19.498;2023-11-21T09:01:31;11.50;;;5.15;;
45136;SDS011;30894;51.740;19.498;2023-11-21T09:03:58;11.45;;;4.00;;
45136;SDS011;30894;51.740;19.498;2023-11-21T09:06:24;11.82;;;5.63;;
45136;SDS011;30894;51.740;19.498;2023-11-21T09:08:50;9.73;;;4.53;;
45136;SDS011;30894;51.740;19.498;2023-11-21T09:11:17;3.17;;;1.73;;
45136;SDS011;30894;51.740;19.498;2023-11-21T09:13:46;10.65;;;3.92;;
45136;SDS011;30894;51.740;19.498;2023-11-21T09:16:18;9.70;;;4.28;;
45136;SDS011;30894;51.740;19.498;2023-11-21T09:18:52;5.13;;;2.72;;
45136;SDS011;30894;51.740;19.498;2023-11-21T09:21:19;10.63;;;4.38;;
45136;SDS011;30894;51.740;19.498;2023-11-21T09:23:48;12.05;;;4.00;;
45136;SDS011;30894;51.740;19.498;2023-11-21T09:26:14;12.27;;;4.43;;
45136;SDS011;30894;51.740;19.498;2023-11-21T09:28:41;7.45;;;3.40;;
45136;SDS011;30894;51.740;19.498;2023-11-21T09:31:15;8.27;;;3.70;;
45136;SDS011;30894;51.740;19.498;2023-11-21T09:33:51;5.03;;;2.63;;
45136;SDS011;30894;51.740;19.498;2023-11-21T09:36:17;6.22;;;2.72;;
45136;SDS011;30894;51.740;19.498;2023-11-21T09:38:46;7.68;;;3.65;;
45136;SDS011;30894;51.740;19.498;2023-11-21T09:41:21;9.00;;;4.35;;
45136;SDS011;30894;51.740;19.498;2023-11-21T09:44:13;11.25;;;4.38;;
45136;SDS011;30894;51.740;19.498;2023-11-21T09:46:49;9.48;;;3.50;;
45136;SDS011;30894;51.740;19.498;2023-11-21T09:49:21;5.90;;;2.97;;
45136;SDS011;30894;51.740;19.498;2023-11-21T09:51:56;9.95;;;3.83;;
45136;SDS011;30894;51.740;19.498;2023-11-21T09:54:29;11.55;;;3.97;;
45136;SDS011;30894;51.740;19.498;2023-11-21T09:57:00;7.00;;;3.17;;
45136;SDS011;30894;51.740;19.498;2023-11-21T09:59:30;6.00;;;2.72;;
45136;SDS011;30894;51.740;19.498;2023-11-21T10:02:00;7.47;;;2.47;;
45136;SDS011;30894;51.740;19.498;2023-11-21T10:04:27;7.05;;;3.42;;
45136;SDS011;30894;51.740;19.498;2023-11-21T10:06:54;10.68;;;4.63;;
45136;SDS011;30894;51.740;19.498;2023-11-21T10:09:21;6.93;;;3.72;;
45136;SDS011;30894;51.740;19.498;2023-11-21T10:11:49;5.07;;;3.15;;
45136;SDS011;30894;51.740;19.498;2023-11-21T10:14:17;8.52;;;3.90;;
45136;SDS011;30894;51.740;19.498;2023-11-21T10:16:50;6.90;;;4.15;;
45136;SDS011;30894;51.740;19.498;2023-11-21T10:19:18;8.73;;;4.07;;
45136;SDS011;30894;51.740;19.498;2023-11-21T10:21:46;15.55;;;7.25;;
45136;SDS011;30894;51.740;19.498;2023-11-21T10:24:12;9.02;;;5.72;;
45136;SDS011;30894;51.740;19.498;2023-11-21T10:26:39;6.65;;;4.05;;
45136;SDS011;30894;51.740;19.498;2023-11-21T10:29:07;3.20;;;2.05;;
45136;SDS011;30894;51.740;19.498;2023-11-21T10:31:33;4.22;;;2.15;;
45136;SDS011;30894;51.740;19.498;2023-11-21T10:36:51;8.25;;;3.17;;
45136;SDS011;30894;51.740;19.498;2023-11-21T10:39:18;5.03;;;3.10;;
45136;SDS011;30894;51.740;19.498;2023-11-21T10:41:52;7.63;;;3.65;;
45136;SDS011;30894;51.740;19.498;2023-11-21T10:44:19;5.38;;;3.03;;
45136;SDS011;30894;51.740;19.498;2023-11-21T10:46:51;8.23;;;3.60;;
45136;SDS011;30894;51.740;19.498;2023-11-21T10:49:27;7.32;;;2.97;;
45136;SDS011;30894;51.740;19.498;2023-11-21T10:51:54;6.57;;;3.42;;
45136;SDS011;30894;51.740;19.498;2023-11-21T10:54:21;8.77;;;4.75;;
45136;SDS011;30894;51.740;19.498;2023-11-21T10:56:58;10.00;;;5.50;;
45136;SDS011;30894;51.740;19.498;2023-11-21T10:59:30;11.85;;;5.55;;
45136;SDS011;30894;51.740;19.498;2023-11-21T11:01:57;12.27;;;5.60;;
45136;SDS011;30894;51.740;19.498;2023-11-21T11:04:26;11.93;;;4.85;;
45136;SDS011;30894;51.740;19.498;2023-11-21T11:06:54;11.55;;;5.40;;
45136;SDS011;30894;51.740;19.498;2023-11-21T11:09:25;9.50;;;4.82;;
45136;SDS011;30894;51.740;19.498;2023-11-21T11:11:52;11.70;;;4.85;;
45136;SDS011;30894;51.740;19.498;2023-11-21T11:14:21;15.43;;;5.90;;
45136;SDS011;30894;51.740;19.498;2023-11-21T11:16:53;9.85;;;4.10;;
45136;SDS011;30894;51.740;19.498;2023-11-21T11:19:21;15.10;;;5.70;;
45136;SDS011;30894;51.740;19.498;2023-11-21T11:21:51;11.75;;;5.57;;
45136;SDS011;30894;51.740;19.498;2023-11-21T11:27:37;18.35;;;5.95;;
45136;SDS011;30894;51.740;19.498;2023-11-21T11:30:23;9.23;;;4.18;;
45136;SDS011;30894;51.740;19.498;2023-11-21T11:33:25;9.93;;;4.70;;
45136;SDS011;30894;51.740;19.498;2023-11-21T11:39:30;11.38;;;3.75;;
45136;SDS011;30894;51.740;19.498;2023-11-21T11:42:01;11.82;;;4.82;;
45136;SDS011;30894;51.740;19.498;2023-11-21T11:47:19;25.08;;;8.63;;
45136;SDS011;30894;51.740;19.498;2023-11-21T11:52:47;8.68;;;3.97;;
45136;SDS011;30894;51.740;19.498;2023-11-21T11:55:20;8.55;;;4.38;;
45136;SDS011;30894;51.740;19.498;2023-11-21T11:57:52;8.82;;;4.10;;
45136;SDS011;30894;51.740;19.498;2023-11-21T12:03:03;9.98;;;5.00;;
45136;SDS011;30894;51.740;19.498;2023-11-21T12:05:34;12.48;;;4.90;;
45136;SDS011;30894;51.740;19.498;2023-11-21T12:08:04;11.32;;;5.10;;
45136;SDS011;30894;51.740;19.498;2023-11-21T12:10:34;16.55;;;6.05;;
45136;SDS011;30894;51.740;19.498;2023-11-21T12:13:11;15.57;;;7.35;;
45136;SDS011;30894;51.740;19.498;2023-11-21T12:15:47;12.45;;;5.65;;
45136;SDS011;30894;51.740;19.498;2023-11-21T12:18:13;14.75;;;6.35;;
45136;SDS011;30894;51.740;19.498;2023-11-21T12:20:42;11.80;;;4.50;;
45136;SDS011;30894;51.740;19.498;2023-11-21T12:23:12;14.18;;;6.45;;
45136;SDS011;30894;51.740;19.498;2023-11-21T12:25:40;7.10;;;4.18;;
45136;SDS011;30894;51.740;19.498;2023-11-21T12:28:07;17.25;;;7.13;;
45136;SDS011;30894;51.740;19.498;2023-11-21T12:30:36;18.27;;;7.43;;
45136;SDS011;30894;51.740;19.498;2023-11-21T12:33:03;18.30;;;7.20;;
45136;SDS011;30894;51.740;19.498;2023-11-21T12:35:35;12.68;;;6.03;;
45136;SDS011;30894;51.740;19.498;2023-11-21T12:38:02;13.65;;;6.20;;
45136;SDS011;30894;51.740;19.498;2023-11-21T12:40:30;18.80;;;7.38;;
45136;SDS011;30894;51.740;19.498;2023-11-21T12:42:57;19.13;;;6.32;;
45136;SDS011;30894;51.740;19.498;2023-11-21T12:45:27;17.33;;;6.43;;
45136;SDS011;30894;51.740;19.498;2023-11-21T12:47:59;11.13;;;5.10;;
45136;SDS011;30894;51.740;19.498;2023-11-21T12:50:34;17.25;;;5.97;;
45136;SDS011;30894;51.740;19.498;2023-11-21T12:53:02;15.65;;;6.60;;
45136;SDS011;30894;51.740;19.498;2023-11-21T12:58:05;14.65;;;5.53;;
45136;SDS011;30894;51.740;19.498;2023-11-21T13:00:35;5.60;;;3.42;;
45136;SDS011;30894;51.740;19.498;2023-11-21T13:03:16;9.15;;;3.90;;
45136;SDS011;30894;51.740;19.498;2023-11-21T13:05:49;5.10;;;3.15;;
45136;SDS011;30894;51.740;19.498;2023-11-21T13:08:16;10.18;;;5.50;;
45136;SDS011;30894;51.740;19.498;2023-11-21T13:10:46;11.80;;;5.82;;
45136;SDS011;30894;51.740;19.498;2023-11-21T13:13:23;10.38;;;4.53;;
45136;SDS011;30894;51.740;19.498;2023-11-21T13:15:56;18.73;;;6.70;;
45136;SDS011;30894;51.740;19.498;2023-11-21T13:18:33;13.55;;;5.88;;
45136;SDS011;30894;51.740;19.498;2023-11-21T13:21:02;11.05;;;5.82;;
45136;SDS011;30894;51.740;19.498;2023-11-21T13:23:41;16.33;;;7.00;;
45136;SDS011;30894;51.740;19.498;2023-11-21T13:26:08;15.95;;;6.97;;
45136;SDS011;30894;51.740;19.498;2023-11-21T13:28:37;16.10;;;7.22;;
45136;SDS011;30894;51.740;19.498;2023-11-21T13:31:06;9.05;;;4.38;;
45136;SDS011;30894;51.740;19.498;2023-11-21T13:33:47;9.00;;;3.95;;
45136;SDS011;30894;51.740;19.498;2023-11-21T13:36:24;8.15;;;4.28;;
45136;SDS011;30894;51.740;19.498;2023-11-21T13:38:51;12.82;;;6.45;;
45136;SDS011;30894;51.740;19.498;2023-11-21T13:41:22;9.45;;;4.70;;
45136;SDS011;30894;51.740;19.498;2023-11-21T13:43:56;9.05;;;3.75;;
45136;SDS011;30894;51.740;19.498;2023-11-21T13:46:31;15.50;;;6.05;;
45136;SDS011;30894;51.740;19.498;2023-11-21T13:49:02;14.82;;;5.65;;
45136;SDS011;30894;51.740;19.498;2023-11-21T13:51:31;12.05;;;6.20;;
45136;SDS011;30894;51.740;19.498;2023-11-21T13:54:09;13.27;;;5.50;;
45136;SDS011;30894;51.740;19.498;2023-11-21T13:56:36;11.65;;;6.00;;
45136;SDS011;30894;51.740;19.498;2023-11-21T13:59:04;15.13;;;6.47;;
45136;SDS011;30894;51.740;19.498;2023-11-21T14:01:39;13.93;;;6.25;;
45136;SDS011;30894;51.740;19.498;2023-11-21T14:04:23;15.05;;;7.13;;
45136;SDS011;30894;51.740;19.498;2023-11-21T14:06:59;21.30;;;7.53;;
45136;SDS011;30894;51.740;19.498;2023-11-21T14:09:36;17.98;;;8.07;;
45136;SDS011;30894;51.740;19.498;2023-11-21T14:12:09;20.97;;;9.13;;
45136;SDS011;30894;51.740;19.498;2023-11-21T14:14:37;14.63;;;6.15;;
45136;SDS011;30894;51.740;19.498;2023-11-21T14:17:05;17.55;;;7.30;;
45136;SDS011;30894;51.740;19.498;2023-11-21T14:19:35;16.08;;;6.82;;
45136;SDS011;30894;51.740;19.498;2023-11-21T14:22:06;23.50;;;6.20;;
45136;SDS011;30894;51.740;19.498;2023-11-21T14:24:37;21.40;;;8.02;;
45136;SDS011;30894;51.740;19.498;2023-11-21T14:27:12;19.20;;;8.13;;
45136;SDS011;30894;51.740;19.498;2023-11-21T14:29:40;1.17;;;0.82;;
45136;SDS011;30894;51.740;19.498;2023-11-21T14:32:10;15.63;;;6.40;;
45136;SDS011;30894;51.740;19.498;2023-11-21T14:34:36;21.83;;;9.20;;
45136;SDS011;30894;51.740;19.498;2023-11-21T14:37:03;16.88;;;8.68;;
45136;SDS011;30894;51.740;19.498;2023-11-21T14:39:30;19.98;;;9.05;;
45136;SDS011;30894;51.740;19.498;2023-11-21T14:42:03;12.88;;;5.45;;
45136;SDS011;30894;51.740;19.498;2023-11-21T14:44:33;24.35;;;9.00;;
45136;SDS011;30894;51.740;19.498;2023-11-21T14:47:06;23.50;;;8.88;;
45136;SDS011;30894;51.740;19.498;2023-11-21T14:49:41;27.60;;;9.27;;
45136;SDS011;30894;51.740;19.498;2023-11-21T14:52:24;6.28;;;3.25;;